Flight Track Log - Related Links

Times and Time Zones

All times are in EDT time to prevent confusion due to time zone crossing. See the N2RC flight status page for this flight to view local times or setup timezone preferences in your user account.

Time Position Orientation Groundspeed Altitude Reporting Facility
EDT Latitude Longitude Course Direction KTS MPH feet Rate Location/Type
08:39PM 35.8561 -78.8108 223° Southwest 169 194 1,100  Level Washington Center
08:39PM 35.8389 -78.8306 223° Southwest 179 206 2,400 2,298 Climbing Washington Center
08:40PM 35.8286 -78.8994 260° West 233 268 4,700 2,250 Climbing Washington Center
08:42PM 35.8272 -79.0275 269° West 261 300 8,100 2,466 Climbing Washington Center
08:43PM 35.8233 -79.0886 266° West 235 270 10,700 1,866 Climbing Washington Center
08:44PM 35.8236 -79.1478 270° West 180 207 11,800 1,180 Climbing Washington Center
08:45PM 35.8239 -79.2117 270° West 180 207 13,100 1,160 Climbing Washington Center
08:46PM 35.8217 -79.2833 268° West 192 221 14,100 1,220 Climbing Washington Center
08:47PM 35.8186 -79.3781 268° West 263 303 15,500 942 Climbing Washington Center
08:48PM 35.8178 -79.4703 269° West 295 339 16,000 622 Climbing Washington Center
08:51PM 35.7836 -79.7614 262° West 323 372 17,800 814 Climbing Atlanta Center
08:52PM 35.7642 -79.8672 257° West 323 372 19,000 1,000 Climbing Atlanta Center
08:53PM 35.7514 -79.9831 262° West 323 372 19,800 1,450 Climbing Atlanta Center
08:54PM 35.7592 -80.0928 275° West 329 379 21,900 1,900 Climbing Atlanta Center
08:55PM 35.7667 -80.2025 275° West 324 373 23,600 1,850 Climbing Atlanta Center
08:56PM 35.8011 -80.3006 293° West 300 345 25,600 1,500 Climbing Atlanta Center
08:57PM 35.8797 -80.3458 335° Northwest 287 330 26,600 1,150 Climbing Atlanta Center
08:58PM 35.9497 -80.3861 335° Northwest 301 346 27,900 1,300 Climbing Atlanta Center
08:59PM 36.0344 -80.4336 336° Northwest 312 359 29,200 1,350 Climbing Atlanta Center
09:00PM 36.1172 -80.4789 336° Northwest 322 371 30,600 1,350 Climbing Atlanta Center
09:01PM 36.2000 -80.5267 335° Northwest 322 371 31,900 1,350 Climbing Atlanta Center
09:02PM 36.2806 -80.5747 334° Northwest 322 371 33,300 1,250 Climbing Atlanta Center
09:03PM 36.3758 -80.6219 338° Northwest 328 377 34,400 1,150 Climbing Atlanta Center
09:04PM 36.4583 -80.6703 335° Northwest 328 377 35,600 1,150 Climbing Atlanta Center
09:05PM 36.5431 -80.7156 337° Northwest 322 371 36,700 1,050 Climbing Atlanta Center
09:06PM 36.6356 -80.7403 348° North 322 371 37,700 650 Climbing Atlanta Center
09:07PM 36.7258 -80.7650 348° North 327 376 38,000 114 Climbing Atlanta Center
09:08PM 36.8692 -80.8056 347° North 354 407 38,000  Level Indianapolis Center
09:09PM 36.9911 -80.8400 347° North 369 425 38,000  Level Indianapolis Center
09:10PM 37.0933 -80.8689 347° North 369 425 38,000  Level Indianapolis Center
09:11PM 37.1978 -80.8981 347° North 375 432 38,000  Level Indianapolis Center
09:12PM 37.3039 -80.9292 347° North 382 440 38,000  Level Indianapolis Center
09:13PM 37.4092 -80.9597 347° North 383 441 38,000  Level Indianapolis Center
09:14PM 37.5150 -80.9894 347° North 386 444 38,000  Level Indianapolis Center
09:15PM 37.6239 -81.0208 347° North 393 452 38,000  Level Indianapolis Center
09:16PM 37.7300 -81.0517 347° North 393 452 38,000  Level Indianapolis Center
09:17PM 37.8339 -81.0817 347° North 393 452 38,000  Level Indianapolis Center
09:18PM 37.9400 -81.1117 347° North 392 451 38,000 246 Level Indianapolis Center
09:19PM 38.0453 -81.1431 347° North 392 451 38,500 689 Climbing Indianapolis Center
09:20PM 38.1653 -81.1808 346° North 376 433 39,400 738 Climbing Indianapolis Center
09:21PM 38.2622 -81.2083 347° North 363 418 40,000 293 Climbing Indianapolis Center
09:23PM 38.3614 -81.2364 347° North 363 418 40,000  Level Indianapolis Center
09:24PM 38.4619 -81.2664 347° North 366 421 40,000  Level Indianapolis Center
09:25PM 38.5628 -81.2944 348° North 369 425 40,000  Level Indianapolis Center
09:26PM 38.6683 -81.2986 358° North 389 448 40,000 197 Level Indianapolis Center
09:27PM 38.7733 -81.2769 North 385 443 40,400 443 Climbing Indianapolis Center
09:28PM 38.8750 -81.2731 North 377 434 40,900 293 Climbing Indianapolis Center
09:29PM 38.9894 -81.3231 341° North 368 423 41,000 49 Climbing Indianapolis Center
09:30PM 39.0875 -81.3561 345° North 367 422 41,000  Level Indianapolis Center
09:31PM 39.1867 -81.3914 345° North 367 422 41,000  Level Indianapolis Center
09:32PM 39.2858 -81.4253 345° North 368 423 41,000  Level Indianapolis Center
09:33PM 39.3853 -81.4594 345° North 368 423 41,000  Level Indianapolis Center
09:34PM 39.4836 -81.4933 345° North 368 423 41,000  Level Indianapolis Center
09:35PM 39.5825 -81.5286 345° North 368 423 41,000 -689 Level Indianapolis Center
09:36PM 39.6836 -81.5631 345° North 369 425 39,600 -984 Descending Indianapolis Center
09:37PM 39.7997 -81.6028 345° North 374 430 39,000 -295 Descending Indianapolis Center
09:38PM 39.8969 -81.6375 345° North 372 428 39,000  Level Indianapolis Center
09:39PM 39.9856 -81.6639 347° North 369 425 39,000  Level Indianapolis Center
09:40PM 40.0839 -81.7400 329° Northwest 356 410 39,000  Level Indianapolis Center
09:40PM 40.1267 -81.7750 328° Northwest 350 403 39,000  Level Cleveland Center
09:41PM 40.2081 -81.8444 327° Northwest 350 403 39,000 -488 Level Cleveland Center
09:42PM 40.2919 -81.9158 327° Northwest 357 411 38,000 -1,180 Descending Cleveland Center
09:43PM 40.3842 -81.9931 327° Northwest 380 437 36,600 -1,366 Descending Cleveland Center
09:44PM 40.4758 -82.0714 327° Northwest 384 442 35,200 -1,366 Descending Cleveland Center
09:45PM 40.5686 -82.1506 327° Northwest 389 448 33,800 -1,377 Descending Cleveland Center
09:47PM 40.6594 -82.2303 326° Northwest 390 449 32,400 -1,377 Descending Cleveland Center
09:48PM 40.7486 -82.3061 327° Northwest 382 440 31,000 -1,366 Descending Cleveland Center
09:49PM 40.8361 -82.3819 327° Northwest 376 433 29,600 -1,366 Descending Cleveland Center
09:50PM 40.9017 -82.4775 312° West 349 402 28,200 -1,377 Descending Cleveland Center
09:51PM 40.9578 -82.5683 309° West 322 371 26,800 -1,426 Descending Cleveland Center
09:52PM 41.0467 -82.5906 349° North 327 376 25,300 -1,415 Descending Cleveland Center
09:53PM 41.1383 -82.5922 359° North 327 376 23,900 -1,366 Descending Cleveland Center
09:54PM 41.2278 -82.5972 358° North 322 371 22,500 -1,426 Descending Cleveland Center
09:55PM 41.3347 -82.6253 349° North 327 376 21,000 -738 Descending Cleveland Center
09:56PM 41.4322 -82.6550 347° North 349 402 21,000 -197 Level Cleveland Center
09:57PM 41.5342 -82.6558 360° North 359 413 20,600 -537 Descending Cleveland Center
09:58PM 41.6397 -82.6581 359° North 371 427 19,900 -634 Descending Cleveland Center
09:59PM 41.7336 -82.6553 North 375 432 19,300 -443 Descending Cleveland Center
10:00PM 41.8311 -82.6556 360° North 355 409 19,000 -148 Descending Cleveland Center
10:01PM 41.9294 -82.6547 360° North 355 409 19,000  Level Cleveland Center
10:02PM 42.0547 -82.6528 North 373 429 19,000  Level Cleveland Center
10:03PM 42.1586 -82.6533 360° North 375 432 19,000  Level Cleveland Center
10:04PM 42.2606 -82.6522 360° North 373 429 19,000  Level Cleveland Center
10:05PM 42.3619 -82.6517 360° North 371 427 19,000  Level Cleveland Center
10:06PM 42.4642 -82.6503 North 371 427 19,000 -390 Level Cleveland Center
10:07PM 42.5656 -82.6500 360° North 369 425 18,200 -1,279 Descending Cleveland Center
10:08PM 42.6647 -82.6486 North 362 417 16,400 -1,672 Descending Cleveland Center
10:09PM 42.7642 -82.6500 359° North 362 417 14,800 -1,707 Descending Cleveland Center
10:10PM 42.8717 -82.6931 344° North 346 398 12,900 -1,659 Descending Cleveland Center
10:11PM 42.9331 -82.7750 316° Northwest 325 374 11,400 -927 Descending Cleveland Center
10:12PM 42.9514 -82.8711 285° West 271 312 11,000 -195 Descending Cleveland Center
10:13PM 42.9528 -82.9633 271° West 250 288 11,000 -148 Level Cleveland Center
10:14PM 42.9575 -83.0617 274° West 256 295 10,700 -976 Descending Cleveland Center
10:15PM 42.9628 -83.1728 274° West 260 299 9,000 -1,659 Descending Cleveland Center
10:16PM 42.9697 -83.2697 276° West 257 296 7,300 -1,707 Descending Cleveland Center
10:17PM 42.9778 -83.3717 276° West 254 292 5,500 -1,659 Descending Cleveland Center
10:18PM 42.9747 -83.4656 267° West 253 291 3,900 -1,279 Descending Cleveland Center
10:19PM 42.9733 -83.5525 269° West 234 269 2,900 -780 Descending Cleveland Center
10:20PM 42.9722 -83.6214 269° West 181 208 2,300 -634 Descending Cleveland Center
10:21PM 42.9711 -83.6636 268° West 110 127 1,600 -585 Descending Cleveland Center
10:22PM 42.9703 -83.7028 268° West 102 117 1,100 -439 Descending Cleveland Center
10:23PM 42.9692 -83.7433 268° West 102 117 700 -197 Descending Cleveland Center
10:24PM 42.9694 -83.7539 272° West 32 37 700  Level Cleveland Center
10:25PM 42.9706 -83.7475 77° East 15 17 700  Level Cleveland Center

Login

Don't have an account? Register now (free) for customized features, flight alerts, and more!